^^
Meteo Knjazevac Station Historical Data
Daily Summary for September 26, 2022 Units:  Metric    English   Both
Daily Weekly Monthly Yearly Custom
  High: Low: Average:
Temperature: 21.4 °C 13.5 °C 16.4 °C
Dew Point: 16.4 °C 11.7 °C 14.5 °C
Humidity: 99% 68.8% 89%
Wind Speed: 18.7km/h 0km/h 7.1km/h
Wind Gust: 20.9km/h - -
Wind- - SW
Pressure: 1016.5 hPa 1011.7 hPa -
Precipitation: 12.19 mm    
Historical Graphs
 
 
Tabular Data for September 26, 2022
Time Temperature Dew Point Pressure Wind Wind Speed Wind Gust Humidity Rainfall Rate (Hourly) solar Conditions
00:04 17.5 °C 11.7 °C 1016.1 hPa South 6.6 km/h 11.3 km/h 68.8% 0 mm 0 W/m2
00:09 17.5 °C 11.8 °C 1016.1 hPa SSW 2.6 km/h 8 km/h 69.5% 0 mm 0 W/m2
00:14 17.4 °C 11.9 °C 1016.1 hPa SW 2.3 km/h 3.2 km/h 70% 0 mm 0 W/m2
00:19 17.3 °C 12.2 °C 1016.1 hPa WSW 2.9 km/h 3.2 km/h 71.7% 0 mm 0 W/m2
00:24 17.2 °C 12.2 °C 1016.1 hPa West 2.7 km/h 3.2 km/h 72.1% 0 mm 0 W/m2
00:29 17.1 °C 12.2 °C 1016.1 hPa WNW 3.2 km/h 3.2 km/h 73% 0 mm 0 W/m2
00:34 17 °C 12.1 °C 1016.1 hPa WNW 2.4 km/h 3.2 km/h 73% 0 mm 0 W/m2
00:39 16.9 °C 12.1 °C 1016.1 hPa WNW 2.4 km/h 3.2 km/h 73.5% 0 mm 0 W/m2
00:44 16.8 °C 12.1 °C 1016.1 hPa West 4.8 km/h 4.8 km/h 73.3% 0 mm 0 W/m2
00:49 16.8 °C 11.9 °C 1016.1 hPa West 6.4 km/h 8 km/h 73% 0 mm 0 W/m2
00:54 16.8 °C 11.9 °C 1016.1 hPa WSW 6 km/h 8 km/h 72.8% 0 mm 0 W/m2
00:59 16.9 °C 11.8 °C 1016.1 hPa WSW 5.8 km/h 6.4 km/h 72% 0 mm 0 W/m2
01:04 17 °C 12.1 °C 1016.5 hPa SW 6 km/h 8 km/h 72.8% 0 mm 0 W/m2
01:09 16.9 °C 12.2 °C 1016.5 hPa SW 7.1 km/h 8 km/h 73.3% 0 mm 0 W/m2
01:14 17 °C 12.1 °C 1016.5 hPa SSW 8.4 km/h 8 km/h 73% 0 mm 0 W/m2
01:19 17 °C 12.1 °C 1016.5 hPa SSW 10 km/h 11.3 km/h 72.8% 0 mm 0 W/m2
01:24 16.9 °C 12.2 °C 1016.5 hPa SSW 9.8 km/h 11.3 km/h 73.4% 0 mm 0 W/m2
01:29 16.8 °C 12.2 °C 1016.5 hPa SSW 8.5 km/h 11.3 km/h 74.1% 0 mm 0 W/m2
01:34 16.7 °C 12.3 °C 1016.5 hPa SSW 8.5 km/h 9.7 km/h 75.4% 0 mm 0 W/m2
01:39 16.6 °C 12.4 °C 1016.5 hPa SSW 6.9 km/h 9.7 km/h 76.3% 0 mm 0 W/m2
01:44 16.6 °C 12.5 °C 1016.5 hPa SSW 7.1 km/h 8 km/h 76.6% 0 mm 0 W/m2
01:49 16.5 °C 12.6 °C 1016.5 hPa SW 8.9 km/h 8 km/h 77.7% 0 mm 0 W/m2
01:54 16.4 °C 12.7 °C 1016.1 hPa SW 7.9 km/h 9.7 km/h 78.8% 0 mm 0 W/m2
01:59 16.3 °C 12.8 °C 1016.1 hPa SW 9.2 km/h 9.7 km/h 79.5% 0 mm 0 W/m2
02:04 16.2 °C 12.8 °C 1016.1 hPa SW 7.2 km/h 9.7 km/h 80.3% 0.25 mm 0 W/m2
02:09 16.1 °C 13.1 °C 1016.1 hPa SW 7.9 km/h 8 km/h 82.5% 0.25 mm 0 W/m2
02:14 15.9 °C 13.2 °C 1016.1 hPa SSW 7.7 km/h 9.7 km/h 83.9% 0.51 mm 0 W/m2
02:19 15.7 °C 13.1 °C 1016.1 hPa South 8 km/h 11.3 km/h 84.3% 0.51 mm 0 W/m2
02:24 15.7 °C 13.1 °C 1016.1 hPa SSE 6.3 km/h 12.9 km/h 84.8% 0.51 mm 0 W/m2
02:29 15.5 °C 13.2 °C 1016.1 hPa SE 6 km/h 8 km/h 85.9% 0.51 mm 0 W/m2
02:34 15.3 °C 12.9 °C 1016.1 hPa East 3.5 km/h 8 km/h 86% 0.51 mm 0 W/m2
02:39 15.3 °C 13.1 °C 1016.1 hPa ENE 3.1 km/h 8 km/h 86.8% 0.51 mm 0 W/m2
02:44 15.2 °C 13.2 °C 1016.1 hPa NE 3.1 km/h 4.8 km/h 87.7% 0.51 mm 0 W/m2
02:49 15.1 °C 13.2 °C 1016.1 hPa East 7.2 km/h 7.2 km/h 88.8% 0.51 mm 0 W/m2
02:54 15.1 °C 13.2 °C 1016.1 hPa ENE 6.9 km/h 9.7 km/h 88.7% 0.51 mm 0 W/m2
02:59 14.9 °C 13.1 °C 1016.1 hPa NE 7.1 km/h 8 km/h 89% 0.51 mm 0 W/m2
03:04 14.8 °C 13.1 °C 1015.8 hPa NE 6.6 km/h 8 km/h 89.1% 0.51 mm 0 W/m2
03:09 14.7 °C 13.1 °C 1016.1 hPa NE 2.1 km/h 8 km/h 90% 0.51 mm 0 W/m2
03:14 14.7 °C 13.1 °C 1015.8 hPa NNE 3.4 km/h 3.5 km/h 90% 0.25 mm 0 W/m2
03:19 14.6 °C 13.1 °C 1015.8 hPa NNE 2.6 km/h 4.8 km/h 90.3% 0.25 mm 0 W/m2
03:24 14.6 °C 13.1 °C 1015.8 hPa NNE 1.4 km/h 3.2 km/h 91% 0.25 mm 0 W/m2
03:29 14.4 °C 13.1 °C 1015.8 hPa North 0.3 km/h 1.6 km/h 91.6% 0.25 mm 0 W/m2
03:34 14.4 °C 13.3 °C 1015.8 hPa Calm     93% 0.25 mm 0 W/m2
03:39 14.3 °C 13.3 °C 1015.8 hPa NNW 1.1 km/h 1.4 km/h 93.6% 0.51 mm 0 W/m2
03:44 14.2 °C 13.1 °C 1015.8 hPa NNW 1.3 km/h 3.2 km/h 93% 0.25 mm 0 W/m2
03:49 14.2 °C 13.3 °C 1015.8 hPa North 0.8 km/h 3.2 km/h 94.3% 0.25 mm 0 W/m2
03:54 14.1 °C 13.3 °C 1015.8 hPa NW 3.9 km/h 3.2 km/h 95% 0.25 mm 0 W/m2
03:59 14 °C 13.3 °C 1015.8 hPa SW 6.1 km/h 6.4 km/h 95.4% 0.25 mm 0 W/m2
04:04 13.9 °C 13.3 °C 1015.5 hPa South 6.3 km/h 9.7 km/h 96% 0.25 mm 0 W/m2
04:09 13.8 °C 13.2 °C 1015.5 hPa SSW 3.4 km/h 8 km/h 96.3% 0.25 mm 0 W/m2
04:14 13.8 °C 13.5 °C 1015.8 hPa SW 0.3 km/h 4.8 km/h 98% 0.25 mm 0 W/m2
04:19 13.8 °C 13.4 °C 1015.8 hPa Calm     98% 0.25 mm 0 W/m2
04:24 13.7 °C 13.4 °C 1015.8 hPa SW 1.9 km/h 1.8 km/h 98.2% 0.25 mm 0 W/m2
04:29 13.7 °C 13.5 °C 1015.8 hPa South 3.2 km/h 3.2 km/h 98.5% 0.25 mm 0 W/m2
04:34 13.7 °C 13.6 °C 1015.8 hPa ESE 2.9 km/h 3.2 km/h 99% 0.25 mm 0 W/m2
04:39 13.7 °C 13.6 °C 1015.5 hPa West 2.3 km/h 3.2 km/h 99% 0 mm 0 W/m2
04:44 13.6 °C 13.4 °C 1015.5 hPa SSW 3.1 km/h 4.8 km/h 99% 0.25 mm 0 W/m2
04:49 13.6 °C 13.4 °C 1015.5 hPa SW 3.5 km/h 4.8 km/h 99% 0.25 mm 0 W/m2
04:54 13.5 °C 13.3 °C 1015.5 hPa NW 1.6 km/h 6.4 km/h 99% 0.25 mm 0 W/m2
04:59 13.6 °C 13.4 °C 1015.5 hPa NNW 4 km/h 3.2 km/h 99% 0.25 mm 0 W/m2
05:04 13.6 °C 13.4 °C 1015.5 hPa NE 3.7 km/h 4.8 km/h 99% 0.51 mm 0 W/m2
05:09 13.5 °C 13.4 °C 1015.5 hPa East 4.2 km/h 4.8 km/h 99% 0.51 mm 0 W/m2
05:14 13.5 °C 13.3 °C 1015.5 hPa South 3.7 km/h 4.8 km/h 99% 0.51 mm 0 W/m2
05:19 13.5 °C 13.3 °C 1015.5 hPa SW 3.4 km/h 4.8 km/h 99% 0.25 mm 0 W/m2
05:24 13.5 °C 13.3 °C 1015.5 hPa SSE 3.1 km/h 4.8 km/h 99% 0.25 mm 0 W/m2
05:29 13.5 °C 13.3 °C 1015.5 hPa ENE 3.4 km/h 3.2 km/h 99% 0.25 mm 0 W/m2
05:34 13.5 °C 13.2 °C 1015.5 hPa ENE 2.6 km/h 3.2 km/h 98.5% 0.25 mm 0 W/m2
05:39 13.5 °C 13.2 °C 1015.5 hPa ENE 3.5 km/h 4.8 km/h 98% 0.25 mm 0 W/m2
05:44 13.5 °C 13.3 °C 1015.5 hPa SE 3.7 km/h 4.8 km/h 98.7% 0.25 mm 0 W/m2
05:49 13.5 °C 13.2 °C 1015.5 hPa SSE 1.8 km/h 3.2 km/h 98.4% 0.25 mm 0 W/m2
05:54 13.5 °C 13.3 °C 1015.5 hPa SW 1.9 km/h 3.2 km/h 98.8% 0.25 mm 0 W/m2
05:59 13.5 °C 13.3 °C 1015.5 hPa SW 1.1 km/h 3.2 km/h 99% 0 mm 0 W/m2
06:04 13.5 °C 13.3 °C 1015.5 hPa West 2.9 km/h 1.8 km/h 98.8% 0 mm 0 W/m2
06:09 13.6 °C 13.3 °C 1015.5 hPa South 6 km/h 4.7 km/h 98.6% 0 mm 0 W/m2
06:14 13.7 °C 13.4 °C 1015.5 hPa SSE 7.9 km/h 8 km/h 98.2% 0 mm 0 W/m2
06:19 13.8 °C 13.6 °C 1015.5 hPa SSE 7.2 km/h 9.7 km/h 98% 0 mm 0 W/m2
06:24 13.8 °C 13.6 °C 1015.5 hPa South 7.1 km/h 8 km/h 98% 0.25 mm 0 W/m2
06:29 13.7 °C 13.4 °C 1015.5 hPa South 6.8 km/h 9.7 km/h 98% 0.25 mm 1 W/m2
06:34 13.7 °C 13.4 °C 1015.5 hPa South 4.5 km/h 8 km/h 98% 0.25 mm 2 W/m2
06:39 13.6 °C 13.2 °C 1015.5 hPa SW 6 km/h 4.8 km/h 97.3% 0.25 mm 3 W/m2
06:44 13.6 °C 13.1 °C 1015.5 hPa SW 7.2 km/h 8 km/h 96.4% 0.25 mm 4 W/m2
06:49 13.7 °C 13.1 °C 1015.5 hPa SSW 5.6 km/h 8 km/h 96% 0.25 mm 7 W/m2
06:54 13.7 °C 13.1 °C 1015.5 hPa SSW 5.3 km/h 6.4 km/h 96% 0.25 mm 9 W/m2
06:59 13.7 °C 13.1 °C 1015.5 hPa SSW 7.2 km/h 5.5 km/h 96% 0.25 mm 14 W/m2
07:04 13.7 °C 13.1 °C 1015.5 hPa SSE 6.1 km/h 8 km/h 96.3% 0.25 mm 15 W/m2
07:09 13.7 °C 13.2 °C 1015.1 hPa SE 5.5 km/h 6.4 km/h 96.6% 0.25 mm 22 W/m2
07:14 13.8 °C 13.4 °C 1015.1 hPa East 4.8 km/h 6.4 km/h 98% 0.25 mm 24 W/m2
07:19 13.8 °C 13.5 °C 1015.1 hPa ENE 4.3 km/h 4.8 km/h 98% 0.25 mm 28 W/m2
07:24 13.8 °C 13.5 °C 1014.8 hPa NE 4 km/h 4.8 km/h 98% 0.25 mm 28 W/m2
07:29 13.8 °C 13.6 °C 1014.8 hPa NE 1.8 km/h 4.8 km/h 98% 0 mm 34 W/m2
07:34 13.9 °C 13.6 °C 1014.8 hPa NNE 1.4 km/h 2.1 km/h 98% 0 mm 53 W/m2
07:39 13.9 °C 13.6 °C 1015.1 hPa NNW 1.4 km/h 3.2 km/h 98% 0 mm 64 W/m2
07:44 13.9 °C 13.6 °C 1015.1 hPa West 2.7 km/h 3.2 km/h 98% 0 mm 63 W/m2
07:49 13.9 °C 13.7 °C 1014.8 hPa West 1.4 km/h 3.2 km/h 98% 0 mm 72 W/m2
07:54 14.1 °C 13.7 °C 1014.8 hPa North 3.4 km/h 3.2 km/h 98% 0 mm 71 W/m2
07:59 14.1 °C 13.8 °C 1014.8 hPa SSW 3.4 km/h 3.2 km/h 98.2% 0 mm 64 W/m2
08:04 14.1 °C 13.8 °C 1014.8 hPa SW 1.8 km/h 3.2 km/h 98% 0 mm 56 W/m2
08:09 14.1 °C 13.8 °C 1014.8 hPa Calm   3.2 km/h 98% 0 mm 71 W/m2
08:14 14.2 °C 13.8 °C 1014.8 hPa Calm     98% 0 mm 92 W/m2
08:19 14.2 °C 13.9 °C 1014.8 hPa North 1.1 km/h 0.3 km/h 98% 0 mm 101 W/m2
08:24 14.3 °C 13.9 °C 1014.8 hPa NNW 1.6 km/h 1.6 km/h 98% 0 mm 93 W/m2
08:29 14.3 °C 13.8 °C 1014.4 hPa West 1.4 km/h 1.6 km/h 96.4% 0 mm 97 W/m2
08:34 14.4 °C 13.8 °C 1014.4 hPa WSW 2.3 km/h 3.2 km/h 96% 0 mm 97 W/m2
08:39 14.6 °C 13.9 °C 1014.4 hPa WSW 3.4 km/h 2.6 km/h 96% 0 mm 129 W/m2
08:44 14.6 °C 14.3 °C 1014.4 hPa West 2.6 km/h 3.2 km/h 97.8% 0 mm 139 W/m2
08:49 14.7 °C 14.4 °C 1014.8 hPa West 5.5 km/h 4.8 km/h 98% 0 mm 143 W/m2
08:54 14.8 °C 14.4 °C 1014.8 hPa WNW 4.8 km/h 8 km/h 97.6% 0 mm 146 W/m2
08:59 14.8 °C 14.2 °C 1014.4 hPa WNW 1 km/h 4.8 km/h 96% 0 mm 145 W/m2
09:04 14.9 °C 14.3 °C 1014.8 hPa WNW 1.9 km/h 1.8 km/h 96% 0 mm 134 W/m2
09:09 15.1 °C 14.4 °C 1014.8 hPa West 4.3 km/h 3.5 km/h 96% 0 mm 111 W/m2
09:14 15.2 °C 14.6 °C 1014.8 hPa West 4.2 km/h 4.8 km/h 96.5% 0 mm 130 W/m2
09:19 15.2 °C 14.5 °C 1014.8 hPa NW 2.4 km/h 4.8 km/h 95.5% 0 mm 130 W/m2
09:24 15.3 °C 14.5 °C 1014.8 hPa NNW 1.1 km/h 3.2 km/h 95.1% 0 mm 126 W/m2
09:29 15.3 °C 14.4 °C 1014.8 hPa WNW 0.5 km/h 1.6 km/h 94.3% 0 mm 151 W/m2
09:34 15.6 °C 14.7 °C 1014.8 hPa West 2.1 km/h 2.1 km/h 95% 0 mm 169 W/m2
09:39 15.7 °C 14.8 °C 1014.8 hPa WSW 2.3 km/h 3.2 km/h 94.8% 0 mm 183 W/m2
09:44 15.8 °C 15 °C 1014.4 hPa SW 2.1 km/h 1.8 km/h 95% 0 mm 183 W/m2
09:49 15.9 °C 15.1 °C 1014.4 hPa SW 3.5 km/h 3.2 km/h 94.3% 0 mm 158 W/m2
09:54 16.1 °C 14.9 °C 1014.4 hPa SSW 2.1 km/h 3.2 km/h 93.3% 0 mm 183 W/m2
09:59 16.2 °C 14.9 °C 1014.4 hPa South 3.4 km/h 3.2 km/h 92.6% 0 mm 180 W/m2
10:04 16.3 °C 14.9 °C 1014.4 hPa SW 2.6 km/h 4.8 km/h 92% 0 mm 157 W/m2
10:09 16.3 °C 14.9 °C 1014.4 hPa WNW 2.3 km/h 3.2 km/h 91% 0 mm 170 W/m2
10:14 16.4 °C 15 °C 1014.4 hPa WNW 3.2 km/h 3.2 km/h 91% 0 mm 178 W/m2
10:19 16.6 °C 14.9 °C 1014.4 hPa West 2.3 km/h 3.2 km/h 90.2% 0 mm 187 W/m2
10:24 16.7 °C 15.1 °C 1014.4 hPa West 3.7 km/h 3.2 km/h 90.2% 0 mm 198 W/m2
10:29 16.9 °C 15.3 °C 1014.1 hPa West 3.5 km/h 3.2 km/h 90% 0 mm 219 W/m2
10:34 17.1 °C 15.2 °C 1014.1 hPa West 5.3 km/h 4.8 km/h 88.5% 0 mm 224 W/m2
10:39 17.2 °C 15.2 °C 1014.1 hPa West 5.5 km/h 4.8 km/h 88% 0 mm 225 W/m2
10:44 17.3 °C 15.1 °C 1014.1 hPa West 6 km/h 4.8 km/h 86.9% 0 mm 227 W/m2
10:49 17.4 °C 15.4 °C 1014.1 hPa WSW 5.5 km/h 8 km/h 87.5% 0 mm 243 W/m2
10:54 17.7 °C 15.4 °C 1014.1 hPa WSW 5 km/h 6.4 km/h 86.6% 0 mm 266 W/m2
10:59 17.9 °C 15.5 °C 1014.1 hPa WSW 6.3 km/h 6.4 km/h 85.8% 0 mm 307 W/m2
11:04 18.2 °C 15.5 °C 1014.1 hPa SW 7.9 km/h 8 km/h 84.6% 0 mm 323 W/m2
11:09 18.3 °C 15.6 °C 1014.1 hPa SW 8 km/h 9.7 km/h 83.6% 0 mm 315 W/m2
11:14 18.6 °C 15.8 °C 1014.1 hPa SW 7.4 km/h 9.7 km/h 83.8% 0 mm 324 W/m2
11:19 18.8 °C 15.7 °C 1014.1 hPa SW 8 km/h 9.7 km/h 82.2% 0 mm 314 W/m2
11:24 18.9 °C 15.7 °C 1014.1 hPa SW 9 km/h 9.7 km/h 81.2% 0 mm 268 W/m2
11:29 19 °C 15.7 °C 1014.1 hPa SW 8 km/h 9.7 km/h 81% 0 mm 203 W/m2
11:34 19.1 °C 15.8 °C 1014.1 hPa SW 7.6 km/h 9.7 km/h 81.2% 0 mm 188 W/m2
11:39 19.1 °C 15.7 °C 1014.1 hPa WSW 8.4 km/h 9.7 km/h 80.5% 0 mm 207 W/m2
11:44 19.2 °C 15.6 °C 1013.8 hPa WSW 7.1 km/h 9.7 km/h 80% 0 mm 209 W/m2
11:49 19.2 °C 15.7 °C 1013.8 hPa WSW 8.2 km/h 8 km/h 80% 0 mm 213 W/m2
11:54 19.3 °C 15.8 °C 1013.8 hPa WSW 8.7 km/h 9.7 km/h 80% 0 mm 231 W/m2
11:59 19.4 °C 15.9 °C 1013.8 hPa WSW 9.2 km/h 9.7 km/h 80.2% 0 mm 248 W/m2
12:04 19.6 °C 15.9 °C 1013.8 hPa WSW 10 km/h 11.3 km/h 79.3% 0 mm 276 W/m2
12:09 19.8 °C 15.9 °C 1013.8 hPa WSW 9.8 km/h 11.3 km/h 78.4% 0 mm 292 W/m2
12:14 19.9 °C 16 °C 1013.8 hPa WSW 9.8 km/h 11.3 km/h 78.1% 0 mm 294 W/m2
12:19 20.1 °C 15.9 °C 1013.8 hPa WSW 8.4 km/h 11.3 km/h 77.3% 0 mm 346 W/m2
12:24 20.2 °C 16 °C 1013.4 hPa SW 9.5 km/h 9.7 km/h 76.6% 0 mm 394 W/m2
12:29 20.4 °C 16.1 °C 1013.4 hPa SW 11.9 km/h 11.3 km/h 75.9% 0 mm 406 W/m2
12:34 20.8 °C 15.9 °C 1013.4 hPa SW 11.6 km/h 12.9 km/h 74.1% 0 mm 463 W/m2
12:39 21.1 °C 16.2 °C 1013.4 hPa SW 12.1 km/h 12.9 km/h 74% 0 mm 498 W/m2
12:44 21.3 °C 16.4 °C 1013.4 hPa WSW 12.9 km/h 17.7 km/h 73.5% 0 mm 307 W/m2
12:49 21.4 °C 16.3 °C 1013.4 hPa WSW 12.6 km/h 12.9 km/h 73% 0 mm 307 W/m2
12:54 21.4 °C 16.2 °C 1013.4 hPa WSW 15.9 km/h 19.3 km/h 72.2% 0 mm 157 W/m2
12:59 21.3 °C 16.1 °C 1013.4 hPa SW 18.7 km/h 19.3 km/h 72.2% 0 mm 114 W/m2
13:04 21.2 °C 15.9 °C 1013.4 hPa SW 18 km/h 20.9 km/h 72% 0 mm 108 W/m2
13:09 21.1 °C 15.8 °C 1013.4 hPa SW 16.3 km/h 20.9 km/h 72% 0 mm 100 W/m2
13:14 21.1 °C 15.8 °C 1013.4 hPa SW 12.2 km/h 19.3 km/h 72% 0 mm 91 W/m2
13:19 21.1 °C 15.6 °C 1013.4 hPa SW 12.6 km/h 12.9 km/h 71.2% 0 mm 95 W/m2
13:24 21.1 °C 15.8 °C 1013.4 hPa SW 12.2 km/h 14.5 km/h 72.1% 0 mm 91 W/m2
13:29 20.9 °C 16 °C 1013.4 hPa WSW 15.3 km/h 14.5 km/h 73.5% 0 mm 99 W/m2
13:34 20.5 °C 15.9 °C 1013.4 hPa West 13 km/h 17.7 km/h 74.9% 0 mm 117 W/m2
13:39 20.2 °C 15.8 °C 1013.4 hPa West 15.8 km/h 14.5 km/h 75.7% 0 mm 114 W/m2
13:44 20.1 °C 15.9 °C 1013.4 hPa West 13.2 km/h 19.3 km/h 77% 0 mm 112 W/m2
13:49 19.9 °C 15.8 °C 1013.4 hPa WSW 8.9 km/h 12.9 km/h 77.5% 0 mm 118 W/m2
13:54 19.9 °C 15.9 °C 1013.4 hPa WSW 11.3 km/h 11.3 km/h 78% 0 mm 138 W/m2
13:59 19.9 °C 15.9 °C 1013.4 hPa WSW 13.8 km/h 14.5 km/h 77.8% 0 mm 200 W/m2
14:04 19.9 °C 15.9 °C 1013.4 hPa WSW 12.6 km/h 14.5 km/h 78% 0 mm 197 W/m2
14:09 19.9 °C 15.9 °C 1013.4 hPa SW 10.6 km/h 12.9 km/h 78% 0 mm 173 W/m2
14:14 19.8 °C 15.8 °C 1013.1 hPa SW 11.7 km/h 12.9 km/h 77.4% 0 mm 117 W/m2
14:19 19.8 °C 15.8 °C 1012.8 hPa SW 11.6 km/h 12.9 km/h 77.9% 0 mm 98 W/m2
14:24 19.7 °C 15.8 °C 1012.8 hPa SW 10.5 km/h 12.9 km/h 78% 0 mm 89 W/m2
14:29 19.7 °C 15.7 °C 1012.8 hPa WSW 7.9 km/h 11.3 km/h 78.2% 0 mm 89 W/m2
14:34 19.6 °C 15.7 °C 1012.8 hPa WSW 6.6 km/h 11.3 km/h 78.1% 0 mm 77 W/m2
14:39 19.4 °C 15.7 °C 1012.8 hPa SW 8.5 km/h 8 km/h 78.7% 0 mm 93 W/m2
14:44 19.4 °C 15.7 °C 1012.8 hPa SW 13 km/h 12.2 km/h 79.2% 0 mm 93 W/m2
14:49 19.3 °C 15.7 °C 1012.8 hPa WSW 15 km/h 16.1 km/h 79.5% 0 mm 74 W/m2
14:54 19.3 °C 15.7 °C 1012.8 hPa SW 12.7 km/h 16.1 km/h 80% 0 mm 76 W/m2
14:59 19.2 °C 15.7 °C 1012.8 hPa SW 14.8 km/h 12.9 km/h 80% 0 mm 76 W/m2
15:04 19.2 °C 15.7 °C 1012.8 hPa SW 13 km/h 17.7 km/h 80.5% 0 mm 75 W/m2
15:09 19.1 °C 15.8 °C 1012.8 hPa SW 13.7 km/h 12.9 km/h 81.4% 0 mm 69 W/m2
15:14 18.9 °C 15.8 °C 1012.8 hPa SW 15.9 km/h 16.1 km/h 81.8% 0 mm 65 W/m2
15:19 18.8 °C 15.8 °C 1012.8 hPa SW 13.5 km/h 19.3 km/h 82.8% 0 mm 59 W/m2
15:24 18.8 °C 15.9 °C 1012.8 hPa SW 11.3 km/h 14.5 km/h 83.4% 0 mm 51 W/m2
15:29 18.7 °C 16 °C 1012.8 hPa SW 8 km/h 11.3 km/h 84.5% 0 mm 43 W/m2
15:34 18.6 °C 16.1 °C 1012.8 hPa WSW 6.4 km/h 8 km/h 85.7% 0.25 mm 39 W/m2
15:39 18.3 °C 16.3 °C 1013.1 hPa WSW 6.9 km/h 8 km/h 88% 0.51 mm 39 W/m2
15:44 18.2 °C 16.3 °C 1013.1 hPa WSW 9 km/h 9.7 km/h 89% 0.51 mm 34 W/m2
15:49 18 °C 16.2 °C 1013.1 hPa WSW 9.5 km/h 9.7 km/h 89.2% 0.76 mm 32 W/m2
15:54 17.8 °C 16.2 °C 1013.1 hPa SW 9 km/h 11.3 km/h 90.2% 1.02 mm 32 W/m2
15:59 17.7 °C 16.2 °C 1013.1 hPa SW 8.2 km/h 9.7 km/h 91% 1.27 mm 32 W/m2
16:04 17.5 °C 16.3 °C 1013.1 hPa SW 9.8 km/h 11.3 km/h 92.6% 1.52 mm 31 W/m2
16:09 17.3 °C 16.4 °C 1013.1 hPa SW 10.9 km/h 11.3 km/h 93.9% 1.52 mm 30 W/m2
16:14 17.2 °C 16.2 °C 1013.4 hPa SW 12.4 km/h 12.9 km/h 94% 1.78 mm 28 W/m2
16:19 16.9 °C 16.2 °C 1013.4 hPa SW 12.4 km/h 16.1 km/h 95.4% 2.29 mm 29 W/m2
16:24 16.8 °C 16.2 °C 1013.1 hPa SW 10.8 km/h 16.1 km/h 96% 2.54 mm 29 W/m2
16:29 16.7 °C 16.3 °C 1013.1 hPa SW 10.8 km/h 11.3 km/h 97.5% 2.79 mm 26 W/m2
16:34 16.6 °C 16.3 °C 1013.1 hPa SSW 9 km/h 11.3 km/h 98.3% 3.05 mm 21 W/m2
16:39 16.4 °C 16.3 °C 1013.1 hPa SSW 7.1 km/h 9.7 km/h 99% 3.05 mm 16 W/m2
16:44 16.3 °C 16.2 °C 1013.1 hPa SSW 6 km/h 8 km/h 99% 3.05 mm 18 W/m2
16:49 16.3 °C 16.2 °C 1013.1 hPa SSW 4.8 km/h 8 km/h 99% 3.3 mm 18 W/m2
16:54 16.3 °C 16.1 °C 1013.1 hPa SW 6.1 km/h 6.4 km/h 99% 3.3 mm 16 W/m2
16:59 16.2 °C 16.1 °C 1013.1 hPa WSW 6.3 km/h 8 km/h 99% 3.81 mm 14 W/m2
17:04 16.1 °C 15.9 °C 1012.8 hPa WSW 7.2 km/h 9.7 km/h 99% 4.06 mm 14 W/m2
17:09 16.1 °C 15.9 °C 1013.1 hPa SW 8.2 km/h 8 km/h 99% 4.06 mm 12 W/m2
17:14 16.1 °C 15.9 °C 1012.8 hPa WSW 10.8 km/h 10.5 km/h 99% 4.06 mm 13 W/m2
17:19 16.1 °C 15.9 °C 1012.8 hPa West 14 km/h 15.1 km/h 99% 4.32 mm 11 W/m2
17:24 16.1 °C 15.9 °C 1012.8 hPa WNW 16.9 km/h 16.3 km/h 99% 4.06 mm 11 W/m2
17:29 16 °C 15.9 °C 1012.8 hPa WNW 18 km/h 19.3 km/h 99% 4.06 mm 11 W/m2
17:34 16 °C 15.8 °C 1012.8 hPa WNW 15.6 km/h 19.3 km/h 99% 4.32 mm 10 W/m2
17:39 16 °C 15.8 °C 1012.8 hPa WNW 14.3 km/h 17.7 km/h 99% 4.32 mm 10 W/m2
17:44 16 °C 15.8 °C 1012.8 hPa NW 7.9 km/h 16.1 km/h 99% 4.57 mm 12 W/m2
17:49 15.9 °C 15.8 °C 1012.8 hPa NW 14.8 km/h 15.4 km/h 99% 4.57 mm 11 W/m2
17:54 15.9 °C 15.7 °C 1012.4 hPa WNW 15.6 km/h 17.7 km/h 99% 5.08 mm 6 W/m2
17:59 15.9 °C 15.7 °C 1012.4 hPa WNW 13.8 km/h 17.7 km/h 99% 4.83 mm 5 W/m2
18:04 15.9 °C 15.7 °C 1012.4 hPa West 12.1 km/h 14.5 km/h 99% 4.57 mm 4 W/m2
18:09 15.9 °C 15.7 °C 1012.4 hPa West 15.6 km/h 15.1 km/h 99% 4.57 mm 3 W/m2
18:14 15.9 °C 15.7 °C 1012.4 hPa WSW 12.1 km/h 17.7 km/h 99% 4.57 mm 3 W/m2
18:19 15.8 °C 15.7 °C 1012.4 hPa SW 12.1 km/h 11.3 km/h 99% 4.06 mm 2 W/m2
18:24 15.8 °C 15.7 °C 1012.1 hPa SSW 10.9 km/h 12.9 km/h 99% 4.06 mm 1 W/m2
18:29 15.8 °C 15.7 °C 1012.1 hPa SW 12.4 km/h 12.9 km/h 99% 3.81 mm 1 W/m2
18:34 15.8 °C 15.7 °C 1012.1 hPa SW 14.3 km/h 14.5 km/h 99% 3.3 mm 0 W/m2
18:39 15.7 °C 15.6 °C 1011.7 hPa WSW 14.2 km/h 19.3 km/h 99% 3.05 mm 0 W/m2
18:44 15.7 °C 15.6 °C 1011.7 hPa West 12.2 km/h 16.1 km/h 99% 2.54 mm 0 W/m2
18:49 15.7 °C 15.6 °C 1011.7 hPa West 11.4 km/h 12.9 km/h 99% 2.03 mm 0 W/m2
18:54 15.7 °C 15.5 °C 1011.7 hPa West 7.9 km/h 12.9 km/h 99% 1.78 mm 0 W/m2
18:59 15.6 °C 15.4 °C 1011.7 hPa West 9.7 km/h 9.7 km/h 99% 1.27 mm 0 W/m2
19:04 15.6 °C 15.4 °C 1011.7 hPa WNW 9.3 km/h 11.3 km/h 99% 1.02 mm 0 W/m2
19:09 15.5 °C 15.3 °C 1011.7 hPa WNW 7.2 km/h 11.3 km/h 99% 0.76 mm 0 W/m2
19:14 15.5 °C 15.3 °C 1011.7 hPa West 5.8 km/h 8 km/h 99% 0.76 mm 0 W/m2
19:19 15.5 °C 15.3 °C 1011.7 hPa West 6.8 km/h 8 km/h 99% 0.51 mm 0 W/m2
19:24 15.4 °C 15.2 °C 1011.7 hPa WSW 6.3 km/h 8 km/h 99% 0.76 mm 0 W/m2
19:29 15.4 °C 15.2 °C 1011.7 hPa West 6.1 km/h 8 km/h 99% 0.76 mm 0 W/m2
Knjazevac, Serbia
Compliments of Weather Underground - 2 mb